Bernice Lind — WDC8364 — position and weather

sailwx.info

Track history (hours):
 
Tides and Currents Weather Stations Pressure Air Temp Water Temp Dewpoint Dewpoint Depression Visibility Wind Speed Wind Dir Waves Ship Positions

Bernice Lind

Owner: Riverview Equipment Company, LLC, Petaluma, CA. More information available from US FCC via Universal Licensing System and Coast Guard Vessel Documentation Center.

Last reported at 2014-Oct-23 18:23 UTC. Time now 2014-Oct-24 16:57 UTC.
Position N 38°06' W 122°16'.

Length 18 m; draft 11 m.

Type: Towing. MMSI: 367085890.

Date/timePositionNaut miles runAvg speedWind from/ knotsBaromVisibWave heightAir tempDewpointWater temp
2014-Oct-23 18:23N 38°06' W 122°16'3 1.6
2014-Oct-23 16:14N 38°03' W 122°19'3 4.0
2014-Oct-23 15:28N 38°02' W 122°22'5 5.1
2014-Oct-23 14:33N 37°58' W 122°26'4 4.3
2014-Oct-23 13:33N 37°54' W 122°25'5 4.7
2014-Oct-23 12:33N 37°49' W 122°24'3 3.1
2014-Oct-23 11:33N 37°46' W 122°23'5 5.0
2014-Oct-23 10:33N 37°51' W 122°24'7 7.2
2014-Oct-23 09:33N 37°58' W 122°26'6 6.4
2014-Oct-23 08:33N 38°04' W 122°26'5 5.1
2014-Oct-23 07:33N 38°08' W 122°31'4 4.3
2014-Oct-23 06:33N 38°12' W 122°33'4 3.7
2014-Oct-23 05:33N 38°14' W 122°37'0 0.3
2014-Oct-23 04:33N 38°14' W 122°37'0 0.1
2014-Oct-23 03:33N 38°13' W 122°36'  
2014-Oct-18 09:23N 38°13' W 122°36'0 0.0
2014-Oct-18 08:29N 38°13' W 122°36'0 0.0
2014-Oct-18 07:33N 38°13' W 122°36'0 0.0
2014-Oct-18 05:30N 38°13' W 122°36'0 0.3
2014-Oct-18 04:33N 38°13' W 122°36'3 2.9
2014-Oct-18 03:33N 38°12' W 122°33'4 4.0
2014-Oct-18 02:27N 38°08' W 122°31'5 4.1
2014-Oct-18 01:09N 38°04' W 122°26'2 4.0
2014-Oct-18 00:33N 38°02' W 122°24'5 4.9
2014-Oct-17 23:33N 38°04' W 122°18'8 6.3
2014-Oct-17 22:16N 38°02' W 122°08'16 2.0
2014-Oct-17 14:15N 38°04' W 121°48'2 3.3
2014-Oct-17 13:33N 38°02' W 121°50'1 1.5
2014-Oct-17 12:33N 38°01' W 121°48'0 0.1
2014-Oct-17 11:08N 38°01' W 121°48'0 0.0
2014-Oct-17 10:33N 38°01' W 121°48'0 0.0
2014-Oct-17 09:33N 38°01' W 121°48'0 0.0
2014-Oct-17 08:32N 38°01' W 121°48'0 0.0
2014-Oct-17 06:11N 38°01' W 121°48'0 0.0
2014-Oct-17 05:29N 38°01' W 121°48'7 0.4
2014-Oct-16 13:32N 38°03' W 121°56'12 5.9
2014-Oct-16 11:33N 38°03' W 122°11'5 4.8
2014-Oct-16 10:30N 38°06' W 122°16'5 5.4
2014-Oct-16 09:33N 38°11' W 122°18'4 0.1
2014-Oct-15 02:20N 38°14' W 122°17'3 3.2
2014-Oct-15 01:28N 38°12' W 122°19'3 3.5
2014-Oct-15 00:31N 38°09' W 122°17'5 4.6
2014-Oct-14 23:22N 38°04' W 122°15'4 4.3
2014-Oct-14 22:26N 38°02' W 122°10'  
Track history (hours):
 
Tides and Currents Weather Stations Pressure Air Temp Water Temp Dewpoint Dewpoint Depression Visibility Wind Speed Wind Dir Waves Ship Positions

Bernice Lind

Owner: Riverview Equipment Company, LLC, Petaluma, CA. More information available from US FCC via Universal Licensing System and Coast Guard Vessel Documentation Center.

Last reported at 2014-Oct-23 18:23 UTC. Time now 2014-Oct-24 16:57 UTC.
Position N 38°06' W 122°16'.

Length 18 m; draft 11 m.

Type: Towing. MMSI: 367085890.

Date/timePositionNaut miles runAvg speedWind from/ knotsBaromVisibWave heightAir tempDewpointWater temp
2014-Oct-23 18:23N 38°06' W 122°16'3 1.6
2014-Oct-23 16:14N 38°03' W 122°19'3 4.0
2014-Oct-23 15:28N 38°02' W 122°22'5 5.1
2014-Oct-23 14:33N 37°58' W 122°26'4 4.3
2014-Oct-23 13:33N 37°54' W 122°25'5 4.7
2014-Oct-23 12:33N 37°49' W 122°24'3 3.1
2014-Oct-23 11:33N 37°46' W 122°23'5 5.0
2014-Oct-23 10:33N 37°51' W 122°24'7 7.2
2014-Oct-23 09:33N 37°58' W 122°26'6 6.4
2014-Oct-23 08:33N 38°04' W 122°26'5 5.1
2014-Oct-23 07:33N 38°08' W 122°31'4 4.3
2014-Oct-23 06:33N 38°12' W 122°33'4 3.7
2014-Oct-23 05:33N 38°14' W 122°37'0 0.3
2014-Oct-23 04:33N 38°14' W 122°37'0 0.1
2014-Oct-23 03:33N 38°13' W 122°36'  
2014-Oct-18 09:23N 38°13' W 122°36'0 0.0
2014-Oct-18 08:29N 38°13' W 122°36'0 0.0
2014-Oct-18 07:33N 38°13' W 122°36'0 0.0
2014-Oct-18 05:30N 38°13' W 122°36'0 0.3
2014-Oct-18 04:33N 38°13' W 122°36'3 2.9
2014-Oct-18 03:33N 38°12' W 122°33'4 4.0
2014-Oct-18 02:27N 38°08' W 122°31'5 4.1
2014-Oct-18 01:09N 38°04' W 122°26'2 4.0
2014-Oct-18 00:33N 38°02' W 122°24'5 4.9
2014-Oct-17 23:33N 38°04' W 122°18'8 6.3
2014-Oct-17 22:16N 38°02' W 122°08'16 2.0
2014-Oct-17 14:15N 38°04' W 121°48'2 3.3
2014-Oct-17 13:33N 38°02' W 121°50'1 1.5
2014-Oct-17 12:33N 38°01' W 121°48'0 0.1
2014-Oct-17 11:08N 38°01' W 121°48'0 0.0
2014-Oct-17 10:33N 38°01' W 121°48'0 0.0
2014-Oct-17 09:33N 38°01' W 121°48'0 0.0
2014-Oct-17 08:32N 38°01' W 121°48'0 0.0
2014-Oct-17 06:11N 38°01' W 121°48'0 0.0
2014-Oct-17 05:29N 38°01' W 121°48'7 0.4
2014-Oct-16 13:32N 38°03' W 121°56'12 5.9
2014-Oct-16 11:33N 38°03' W 122°11'5 4.8
2014-Oct-16 10:30N 38°06' W 122°16'5 5.4
2014-Oct-16 09:33N 38°11' W 122°18'4 0.1
2014-Oct-15 02:20N 38°14' W 122°17'3 3.2
2014-Oct-15 01:28N 38°12' W 122°19'3 3.5
2014-Oct-15 00:31N 38°09' W 122°17'5 4.6
2014-Oct-14 23:22N 38°04' W 122°15'4 4.3
2014-Oct-14 22:26N 38°02' W 122°10'  

Dump ship's entire track history